Airfield :







YOU CAN JOIN US ON...

 
LOGIN :

Register | Disclaimer

   EN    FR    IT 

 









Legend :    VFR   Marginal VFR   IFR   Intensive IFR   Very Intensive IFR
Visi :
Ceiling :
>= 8 km
>= 3000ft
5 to 8 km
1000 to 3000 ft
1500m to 5 km
500 to 1000 ft
800 to 1500m
200 to 500 ft
< 800m
< 200 ft
Symbols :   Thunderstorms  Fog  Heavy snow  Heavy precipitations  Wind > 20 kt






- Airport Elevation : 38 ft
- IATA code : YMH


CYMH - Mary's Harbour

CURRENT METAR :
  • 250000Z AUTO 25006KT 9SM FEW120 19/11 A3005 RMK SLP180 DENSITY ALT 400FT

EXPIRED METARs :
  • 242300Z AUTO 24006KT 9SM SCT096 SCT120 20/12 A3004 RMK SLP175 DENSITY ALT 500FT
  • 242200Z AUTO VRB05KT 9SM BKN086 BKN100 BKN120 20/11 A3004 RMK SLP174 DENSITY ALT 500FT
  • 242100Z AUTO 25008KT 210V280 9SM BKN110 BKN130 23/08 A3002 RMK SLP168 DENSITY ALT 900FT
  • 242000Z AUTO 28012G17KT 9SM FEW076 SCT130 24/07 A3003 RMK SLP171 DENSITY ALT 1000FT
  • 241952Z AUTO 30011G20KT 280V010 9SM FEW055 SCT110 SCT140 24/09 A3003 RMK SLP171 DENSITY ALT 1000FT
  • 241940Z AUTO 30006KT 9SM -RA FEW060 SCT078 BKN096 23/10 A3003 RMK SLP171 DENSITY ALT 800FT

TAF TAF CYMH
Valid from the 24 at 20:00 until the 25 at 03:00 UTC


241940Z 2420/2503 30012G22KT P6SM BKN080
TEMPO 2420/2503 P6SM -SHRA
BECMG 2423/2501 25008KT RMK FCST BASED ON AUTO OBS. NXT FCST BY 250900Z
CZQX FIR / North America



MET'MAP, your aeronautical weather chart ! - Copyright ORBIFLY December 2007 - Disclaimer

ORBIFLY MET'MAP TEAM :

Programming & Development : Alexandra Zaïnal
Original concept : Baudouin d'Aumeries
Technical & hardware support : Manuel Goepfert
Assistance : Marc-Olivier Méhu




SOURCES & CREDITS :

   NOAA